Time;durP1;ratioP1;P1;durP2;ratioP2;P2;SDS_P1;SDS_P2;PMS_P1;PMS_P2;Temp;Humidity;BMP_temperature;BMP_pressure;BME280_temperature;BME280_humidity;BME280_pressure;Samples;Min_cycle;Max_cycle;Signal;HPM_P1;HPM_P2
2022/07/26 00:01:44;;;;;;;22.60;3.60;;;18.00;99.90;;;;;;5069986;28;20135;-81
2022/07/26 00:04:10;;;;;;;16.70;3.75;;;18.00;99.90;;;;;;5070309;28;20040;-82
2022/07/26 00:06:37;;;;;;;13.38;2.95;;;18.10;99.90;;;;;;5071650;28;20044;-81
2022/07/26 00:09:03;;;;;;;22.13;3.28;;;17.90;99.90;;;;;;5071470;28;20407;-81
2022/07/26 00:11:32;;;;;;;13.00;2.72;;;18.00;99.90;;;;;;5071397;28;20032;-82
2022/07/26 00:13:59;;;;;;;18.27;2.88;;;17.90;99.90;;;;;;5071343;28;20050;-81
2022/07/26 00:16:25;;;;;;;17.63;2.72;;;17.90;99.90;;;;;;5069832;28;20056;-80
2022/07/26 00:18:51;;;;;;;23.40;3.72;;;17.90;99.90;;;;;;5070451;28;20041;-80
2022/07/26 00:21:18;;;;;;;19.75;3.45;;;17.90;99.90;;;;;;5071244;28;20076;-83
2022/07/26 00:23:43;;;;;;;18.75;3.63;;;17.80;99.90;;;;;;5071103;28;20106;-81
2022/07/26 00:26:09;;;;;;;21.20;3.45;;;17.70;99.90;;;;;;5070681;28;20048;-81
2022/07/26 00:28:35;;;;;;;19.95;3.55;;;17.70;99.90;;;;;;5071072;28;20045;-80
2022/07/26 00:31:01;;;;;;;16.13;2.90;;;17.70;99.90;;;;;;5070315;28;20051;-82
2022/07/26 00:33:27;;;;;;;19.00;3.40;;;17.70;99.90;;;;;;5070850;28;20399;-81
2022/07/26 00:35:52;;;;;;;16.10;2.85;;;17.70;99.90;;;;;;5070657;28;20098;-81
2022/07/26 00:38:18;;;;;;;18.80;3.90;;;17.70;99.90;;;;;;5070981;28;20036;-83
2022/07/26 00:40:43;;;;;;;17.88;3.40;;;17.70;99.90;;;;;;5070487;28;20136;-81
2022/07/26 00:43:09;;;;;;;13.02;3.33;;;17.50;99.90;;;;;;5070736;28;20044;-79
2022/07/26 00:45:35;;;;;;;22.13;3.30;;;17.70;99.90;;;;;;5070710;28;20072;-80
2022/07/26 00:48:01;;;;;;;17.35;3.65;;;17.60;99.90;;;;;;5068721;28;20045;-82
2022/07/26 00:50:26;;;;;;;21.73;3.58;;;17.70;99.90;;;;;;5070389;28;20047;-80
2022/07/26 00:52:53;;;;;;;24.05;3.85;;;17.60;99.90;;;;;;5070634;28;20050;-81
2022/07/26 00:55:19;;;;;;;24.67;3.72;;;17.60;99.90;;;;;;5051452;28;20056;-80
2022/07/26 00:57:46;;;;;;;20.80;3.55;;;17.60;99.90;;;;;;5070412;28;20083;-80
2022/07/26 01:00:15;;;;;;;15.93;3.33;;;17.90;99.90;;;;;;5070008;28;20391;-82
2022/07/26 01:02:41;;;;;;;15.57;3.25;;;17.60;99.90;;;;;;5070336;28;20407;-81
2022/07/26 01:05:07;;;;;;;10.50;2.63;;;17.90;99.90;;;;;;5068866;28;20049;-81
2022/07/26 01:07:35;;;;;;;15.48;3.08;;;17.60;99.90;;;;;;5070463;28;20044;-84
2022/07/26 01:10:02;;;;;;;12.75;2.75;;;17.60;99.90;;;;;;5070439;28;20044;-81
2022/07/26 01:12:28;;;;;;;16.65;3.15;;;17.60;99.90;;;;;;5068130;28;20060;-81
2022/07/26 01:14:54;;;;;;;9.70;2.88;;;17.60;99.90;;;;;;5070140;28;20052;-80
2022/07/26 01:17:19;;;;;;;13.32;3.13;;;17.60;99.90;;;;;;5061259;28;20075;-81
2022/07/26 01:19:45;;;;;;;16.52;2.85;;;17.60;99.90;;;;;;5049938;28;20057;-79
2022/07/26 01:22:11;;;;;;;9.52;2.63;;;17.80;99.90;;;;;;5050241;28;20075;-81
2022/07/26 01:24:36;;;;;;;13.90;2.75;;;17.60;99.90;;;;;;5050181;28;20044;-83
2022/07/26 01:27:02;;;;;;;11.70;2.72;;;17.60;99.90;;;;;;5049445;28;20505;-80
2022/07/26 01:29:28;;;;;;;13.80;3.53;;;17.60;99.90;;;;;;5049941;28;20047;-81
2022/07/26 01:31:54;;;;;;;10.20;2.65;;;17.60;99.90;;;;;;5049957;28;20045;-82
2022/07/26 01:34:19;;;;;;;9.93;2.90;;;17.60;99.90;;;;;;5049933;28;20385;-82
2022/07/26 01:36:45;;;;;;;10.38;2.83;;;17.50;99.90;;;;;;5048493;28;20070;-79
2022/07/26 01:39:11;;;;;;;14.13;2.78;;;17.70;99.90;;;;;;5049897;28;20052;-83
2022/07/26 01:41:37;;;;;;;10.20;2.97;;;17.60;99.90;;;;;;5050102;28;20060;-81
2022/07/26 01:44:03;;;;;;;7.13;2.30;;;17.70;99.90;;;;;;5049846;28;20053;-81
2022/07/26 01:46:29;;;;;;;9.75;2.15;;;17.60;99.90;;;;;;5049759;28;20048;-80
2022/07/26 01:48:54;;;;;;;7.70;2.35;;;17.60;99.90;;;;;;5049760;28;20037;-81
2022/07/26 01:51:20;;;;;;;14.45;2.47;;;17.70;99.90;;;;;;5048428;28;20049;-79
2022/07/26 01:53:46;;;;;;;6.20;2.25;;;17.60;99.90;;;;;;5049880;28;20037;-81
2022/07/26 01:56:14;;;;;;;10.48;2.35;;;17.60;99.90;;;;;;5050108;28;20092;-87
2022/07/26 01:58:41;;;;;;;9.40;2.35;;;17.70;99.90;;;;;;5048694;28;20654;-83
2022/07/26 02:01:07;;;;;;;6.85;2.63;;;17.70;99.90;;;;;;5052407;28;20072;-82
2022/07/26 02:03:33;;;;;;;7.10;2.28;;;17.60;99.90;;;;;;5048126;28;20049;-81
2022/07/26 02:05:59;;;;;;;10.30;2.88;;;17.60;99.90;;;;;;5049488;28;20045;-82
2022/07/26 02:08:24;;;;;;;9.43;2.22;;;17.80;99.90;;;;;;5061757;28;20037;-84
2022/07/26 02:11:00;;;;;;;7.43;2.67;;;17.60;99.90;;;;;;5069880;28;20037;-85
2022/07/26 02:13:31;;;;;;;15.60;2.58;;;17.70;99.90;;;;;;5065125;28;20044;-81
2022/07/26 02:16:00;;;;;;;4.93;2.30;;;17.70;99.90;;;;;;5050164;28;20065;-82
2022/07/26 02:18:27;;;;;;;10.85;2.95;;;17.60;99.90;;;;;;5050752;28;20111;-85
2022/07/26 02:20:53;;;;;;;10.07;2.42;;;17.60;99.90;;;;;;5049528;28;20407;-81
2022/07/26 02:23:20;;;;;;;5.07;2.17;;;17.60;99.90;;;;;;5049531;28;20037;-84
2022/07/26 02:25:47;;;;;;;9.68;2.70;;;17.60;99.90;;;;;;5051683;28;20032;-84
2022/07/26 02:28:14;;;;;;;13.68;2.78;;;17.60;99.90;;;;;;5053239;28;20124;-85
2022/07/26 02:30:39;;;;;;;32.60;3.70;;;17.60;99.90;;;;;;5053529;28;20051;-88
2022/07/26 02:33:05;;;;;;;12.77;1.83;;;17.60;99.90;;;;;;5053173;28;20036;-88
2022/07/26 02:35:31;;;;;;;7.50;1.60;;;17.50;99.90;;;;;;5053253;28;20083;-87
2022/07/26 02:38:01;;;;;;;14.75;1.88;;;17.50;99.90;;;;;;5064120;28;20509;-81
2022/07/26 02:40:27;;;;;;;6.60;1.48;;;17.30;99.90;;;;;;5073038;28;20056;-84
2022/07/26 02:42:56;;;;;;;6.68;1.58;;;17.30;99.90;;;;;;5072143;28;20055;-90
2022/07/26 02:45:22;;;;;;;5.53;1.23;;;17.20;99.90;;;;;;5068054;28;20044;-83
2022/07/26 02:47:49;;;;;;;7.25;1.50;;;17.20;99.90;;;;;;5053020;28;20047;-82
2022/07/26 02:50:17;;;;;;;9.15;1.83;;;17.30;99.90;;;;;;5052971;28;20056;-84
2022/07/26 02:52:43;;;;;;;8.25;1.90;;;17.10;99.90;;;;;;5053330;28;20052;-83
2022/07/26 02:55:08;;;;;;;5.85;1.50;;;17.00;99.90;;;;;;5063656;28;20044;-86
2022/07/26 02:57:34;;;;;;;7.68;2.13;;;17.10;99.90;;;;;;5073333;28;20040;-86
2022/07/26 03:00:00;;;;;;;6.95;1.70;;;17.00;99.90;;;;;;5072467;28;20124;-88
2022/07/26 03:02:26;;;;;;;10.20;1.73;;;17.20;99.90;;;;;;5067425;28;20037;-91
2022/07/26 03:04:52;;;;;;;15.45;2.20;;;17.00;99.90;;;;;;5072944;28;20047;-80
2022/07/26 03:07:17;;;;;;;7.47;1.75;;;17.00;99.90;;;;;;5069424;28;20055;-87
2022/07/26 03:09:43;;;;;;;10.52;2.28;;;17.00;99.90;;;;;;5052718;28;20037;-86
2022/07/26 03:12:08;;;;;;;12.93;2.10;;;16.90;99.90;;;;;;5052860;28;20045;-88
2022/07/26 03:14:34;;;;;;;14.07;2.15;;;16.90;99.90;;;;;;5052470;28;20037;-89
2022/07/26 03:17:00;;;;;;;16.75;2.88;;;16.90;99.90;;;;;;5056123;28;20411;-81
2022/07/26 03:19:26;;;;;;;14.65;2.10;;;16.90;99.90;;;;;;5072255;28;20403;-87
2022/07/26 03:21:51;;;;;;;15.13;2.45;;;17.00;99.90;;;;;;5072841;28;20396;-93
2022/07/26 03:24:17;;;;;;;13.73;2.40;;;16.90;99.90;;;;;;5056825;28;20495;-88
2022/07/26 03:26:42;;;;;;;13.75;2.60;;;16.90;99.90;;;;;;5052417;28;20535;-87
2022/07/26 03:29:08;;;;;;;10.30;1.90;;;16.90;99.90;;;;;;5052179;28;20087;-83
2022/07/26 03:31:34;;;;;;;12.05;3.40;;;16.80;99.90;;;;;;5060838;28;20391;-84
2022/07/26 03:33:59;;;;;;;11.80;2.60;;;16.80;99.90;;;;;;5071799;28;20052;-82
2022/07/26 03:36:25;;;;;;;8.88;1.40;;;16.80;99.90;;;;;;5071729;28;20036;-83
2022/07/26 03:38:51;;;;;;;11.82;1.83;;;16.80;99.90;;;;;;5055696;28;20099;-83
2022/07/26 03:41:16;;;;;;;14.45;2.00;;;17.00;99.90;;;;;;5050817;28;20061;-85
2022/07/26 03:43:42;;;;;;;8.13;1.42;;;16.70;99.90;;;;;;5052048;28;20045;-84
2022/07/26 03:46:08;;;;;;;11.85;1.50;;;16.70;99.90;;;;;;5051736;28;20048;-83
2022/07/26 03:48:33;;;;;;;11.60;1.90;;;16.50;99.90;;;;;;5051401;28;20056;-83
2022/07/26 03:50:59;;;;;;;20.50;1.50;;;16.80;99.90;;;;;;5051901;28;20041;-86
2022/07/26 03:53:25;;;;;;;16.95;2.42;;;16.50;99.90;;;;;;5051738;28;20387;-86
2022/07/26 03:58:35;;;;;;;10.45;1.70;;;16.50;99.90;;;;;;5052160;28;20415;-82
2022/07/26 04:01:01;;;;;;;11.02;1.10;;;16.60;99.90;;;;;;5051422;28;20083;-84
2022/07/26 04:03:27;;;;;;;12.55;1.13;;;16.50;99.90;;;;;;5050112;28;20835;-88
2022/07/26 04:05:52;;;;;;;3.83;0.73;;;16.40;99.90;;;;;;5051400;28;20045;-81
2022/07/26 04:08:18;;;;;;;13.60;1.25;;;16.50;99.90;;;;;;5063320;28;20086;-80
2022/07/26 04:10:50;;;;;;;9.10;1.40;;;16.50;99.90;;;;;;5059045;28;20094;-85
2022/07/26 04:13:16;;;;;;;16.73;1.13;;;16.40;99.90;;;;;;5071759;28;20049;-81
2022/07/26 04:15:42;;;;;;;8.90;1.10;;;16.60;99.90;;;;;;5069665;28;20048;-84
2022/07/26 04:18:08;;;;;;;8.10;1.00;;;16.40;99.90;;;;;;5055496;28;20389;-82
2022/07/26 04:20:33;;;;;;;8.40;1.17;;;16.50;99.90;;;;;;5052620;28;20068;-82
2022/07/26 04:22:59;;;;;;;7.53;0.98;;;16.40;99.90;;;;;;5063283;28;20170;-86
2022/07/26 04:25:25;;;;;;;5.18;1.13;;;16.40;99.90;;;;;;5051066;28;20471;-84
2022/07/26 04:27:50;;;;;;;10.65;1.65;;;16.50;99.90;;;;;;5051117;28;20055;-83
2022/07/26 04:30:16;;;;;;;2.88;0.70;;;16.40;99.90;;;;;;5051001;28;20116;-85
2022/07/26 04:32:43;;;;;;;6.93;0.93;;;16.40;99.90;;;;;;5054854;28;20675;-86
2022/07/26 04:35:09;;;;;;;7.63;0.88;;;16.40;99.90;;;;;;5048972;28;20052;-84
2022/07/26 04:37:40;;;;;;;8.00;0.90;;;16.40;99.90;;;;;;5050985;28;20101;-79
2022/07/26 04:40:06;;;;;;;10.48;0.90;;;16.40;99.90;;;;;;5050924;28;20084;-81
2022/07/26 04:42:32;;;;;;;5.32;0.70;;;16.50;99.90;;;;;;5052191;28;20055;-84
2022/07/26 04:44:57;;;;;;;7.13;0.73;;;16.50;99.90;;;;;;5070247;28;20049;-81
2022/07/26 04:47:23;;;;;;;3.50;0.73;;;16.70;99.90;;;;;;5069754;28;20037;-79
2022/07/26 04:49:48;;;;;;;9.57;1.13;;;16.60;99.90;;;;;;5069954;28;20407;-80
2022/07/26 04:52:14;;;;;;;9.63;0.88;;;16.60;99.90;;;;;;5070119;28;20135;-82
2022/07/26 04:54:40;;;;;;;5.10;0.70;;;16.60;99.90;;;;;;5070466;28;20076;-84
2022/07/26 04:57:05;;;;;;;7.43;1.05;;;16.50;99.90;;;;;;5069979;28;20075;-81
2022/07/26 04:59:31;;;;;;;4.55;0.88;;;16.50;99.90;;;;;;5070315;28;20040;-81
2022/07/26 05:01:56;;;;;;;9.10;0.85;;;16.70;99.90;;;;;;5070311;28;20056;-81
2022/07/26 05:04:22;;;;;;;10.05;1.05;;;16.50;99.90;;;;;;5064775;28;20403;-82
2022/07/26 05:06:48;;;;;;;7.10;0.90;;;16.50;99.90;;;;;;5050105;28;20076;-85
2022/07/26 05:09:13;;;;;;;6.88;0.98;;;16.90;99.90;;;;;;5050285;28;20041;-82
2022/07/26 05:11:39;;;;;;;4.35;0.80;;;16.50;99.90;;;;;;5050041;28;20712;-80
2022/07/26 05:14:05;;;;;;;8.27;0.70;;;16.50;99.90;;;;;;5054486;28;20045;-81
2022/07/26 05:16:30;;;;;;;9.82;1.02;;;16.50;99.90;;;;;;5061549;28;20181;-81
2022/07/26 05:18:56;;;;;;;6.22;1.10;;;16.80;99.90;;;;;;5052185;28;20175;-82
2022/07/26 05:21:22;;;;;;;11.70;0.98;;;16.60;99.90;;;;;;5049581;28;20492;-81
2022/07/26 05:23:47;;;;;;;6.10;1.23;;;16.60;99.90;;;;;;5048859;28;20056;-82
2022/07/26 05:26:13;;;;;;;6.88;0.73;;;16.60;99.90;;;;;;5050123;28;20048;-81
2022/07/26 05:28:39;;;;;;;6.50;0.90;;;16.30;99.90;;;;;;5050058;28;20037;-84
2022/07/26 05:31:05;;;;;;;7.75;1.00;;;16.30;99.90;;;;;;5055039;28;20040;-79
2022/07/26 05:33:31;;;;;;;4.85;0.65;;;16.30;99.90;;;;;;5048842;28;20502;-80
2022/07/26 05:35:56;;;;;;;5.10;0.68;;;16.40;99.90;;;;;;5049634;28;20110;-80
2022/07/26 05:38:24;;;;;;;2.95;0.60;;;16.60;99.90;;;;;;5049840;28;20041;-83
2022/07/26 05:40:50;;;;;;;4.28;0.70;;;16.20;99.90;;;;;;5049897;28;20048;-79
2022/07/26 05:43:15;;;;;;;8.27;1.20;;;16.30;99.90;;;;;;5049757;28;20041;-79
2022/07/26 05:45:47;;;;;;;4.30;1.05;;;16.30;99.90;;;;;;5049607;28;20059;-82
2022/07/26 05:48:17;;;;;;;3.58;0.50;;;16.20;99.90;;;;;;5049708;28;20041;-81
2022/07/26 05:50:43;;;;;;;5.53;0.70;;;16.60;99.90;;;;;;5048340;28;20488;-79
2022/07/26 05:53:09;;;;;;;9.35;1.20;;;16.30;99.90;;;;;;5031272;28;20044;-80
2022/07/26 05:55:34;;;;;;;6.00;0.80;;;16.40;99.90;;;;;;5028422;28;20057;-80
2022/07/26 05:58:00;;;;;;;7.38;0.70;;;16.40;99.90;;;;;;5029798;28;20045;-81
2022/07/26 06:00:26;;;;;;;5.13;0.65;;;16.40;99.90;;;;;;5035840;28;20044;-80
2022/07/26 06:02:51;;;;;;;8.48;1.00;;;16.40;99.90;;;;;;5062711;28;20052;-79
2022/07/26 06:05:17;;;;;;;6.07;0.70;;;16.40;99.90;;;;;;5053724;28;20606;-80
2022/07/26 06:07:43;;;;;;;6.22;1.40;;;16.30;99.90;;;;;;5056821;28;20503;-79
2022/07/26 06:10:08;;;;;;;5.18;0.70;;;16.40;99.90;;;;;;5053994;28;20458;-78
2022/07/26 06:12:34;;;;;;;9.60;1.00;;;16.60;99.90;;;;;;5055604;28;20102;-78
2022/07/26 06:15:00;;;;;;;8.98;2.20;;;16.60;99.90;;;;;;5073564;28;20049;-79
2022/07/26 06:17:28;;;;;;;5.93;0.60;;;16.50;99.90;;;;;;5073728;28;20052;-79
2022/07/26 06:19:55;;;;;;;5.72;0.98;;;16.80;99.90;;;;;;5071866;28;20057;-79
2022/07/26 06:22:21;;;;;;;8.20;0.90;;;16.60;99.90;;;;;;5073308;28;20051;-79
2022/07/26 06:24:47;;;;;;;7.90;0.80;;;16.60;99.90;;;;;;5072951;28;20513;-80
2022/07/26 06:27:12;;;;;;;3.85;0.60;;;16.60;99.90;;;;;;5073449;28;20152;-76
2022/07/26 06:29:39;;;;;;;5.68;0.98;;;16.60;99.90;;;;;;5073390;28;20045;-80
2022/07/26 06:32:05;;;;;;;3.47;1.08;;;16.50;99.90;;;;;;5058991;28;20045;-79
2022/07/26 06:34:30;;;;;;;7.07;0.77;;;16.50;99.90;;;;;;5052973;28;20041;-80
2022/07/26 06:36:56;;;;;;;9.82;0.82;;;16.60;99.90;;;;;;5053123;28;20260;-80
2022/07/26 06:39:22;;;;;;;9.98;0.90;;;16.60;99.90;;;;;;5067417;28;20044;-81
2022/07/26 06:41:47;;;;;;;5.32;0.60;;;16.70;99.90;;;;;;5071404;28;20201;-81
2022/07/26 06:44:13;;;;;;;7.88;1.23;;;16.80;99.90;;;;;;5052953;28;20055;-85
2022/07/26 06:46:39;;;;;;;7.30;0.82;;;16.90;99.90;;;;;;5052870;28;20052;-86
2022/07/26 06:49:05;;;;;;;7.45;0.80;;;16.90;99.90;;;;;;5052979;28;20061;-88
2022/07/26 06:51:30;;;;;;;6.93;0.90;;;16.90;99.90;;;;;;5052931;28;20445;-82
2022/07/26 06:53:56;;;;;;;6.38;0.90;;;16.90;99.90;;;;;;5052528;28;20082;-81
2022/07/26 06:56:22;;;;;;;5.15;0.65;;;16.90;99.90;;;;;;5053240;28;20036;-77
2022/07/26 06:58:47;;;;;;;7.13;1.05;;;17.10;99.90;;;;;;5053870;28;20077;-87
2022/07/26 07:01:13;;;;;;;11.73;1.23;;;16.80;99.90;;;;;;5044054;28;20068;-80
2022/07/26 07:03:39;;;;;;;5.25;0.82;;;16.60;99.90;;;;;;5032824;28;20045;-81
2022/07/26 07:06:05;;;;;;;15.13;0.80;;;16.80;99.90;;;;;;5033000;28;20405;-84
2022/07/26 07:08:31;;;;;;;7.97;1.17;;;16.90;99.90;;;;;;5054919;28;20388;-81
2022/07/26 07:10:56;;;;;;;9.00;0.80;;;16.90;99.90;;;;;;5070274;28;20045;-83
2022/07/26 07:13:22;;;;;;;11.45;0.90;;;17.00;99.90;;;;;;5072904;28;20449;-84
2022/07/26 07:15:48;;;;;;;6.47;0.80;;;17.00;99.90;;;;;;5072338;28;20451;-83
2022/07/26 07:18:13;;;;;;;9.98;1.00;;;17.20;99.90;;;;;;5071469;28;20045;-81
2022/07/26 07:20:40;;;;;;;6.55;0.98;;;17.30;99.90;;;;;;5071937;28;20119;-82
2022/07/26 07:23:06;;;;;;;9.02;0.65;;;17.30;99.90;;;;;;5052471;28;20526;-86
2022/07/26 07:25:32;;;;;;;6.50;0.68;;;17.30;99.90;;;;;;5052219;28;20426;-81
2022/07/26 07:27:59;;;;;;;7.30;0.85;;;17.40;99.90;;;;;;5051356;28;20136;-85
2022/07/26 07:30:36;;;;;;;4.75;0.77;;;17.50;99.90;;;;;;5047899;28;20047;-80
2022/07/26 07:33:02;;;;;;;6.88;0.93;;;17.60;99.90;;;;;;5060813;23;20049;-80
2022/07/26 07:35:29;;;;;;;6.40;0.82;;;17.70;99.90;;;;;;5051324;28;20517;-84
2022/07/26 07:37:55;;;;;;;6.78;0.68;;;17.80;99.90;;;;;;5050806;28;20163;-80
2022/07/26 07:40:21;;;;;;;5.75;0.77;;;18.10;99.90;;;;;;5047478;28;20057;-82
2022/07/26 07:42:47;;;;;;;7.50;1.52;;;18.10;99.90;;;;;;5047658;28;20064;-83
2022/07/26 07:45:15;;;;;;;5.78;1.17;;;18.20;99.90;;;;;;5047133;28;20582;-81
2022/07/26 07:47:41;;;;;;;8.98;0.90;;;18.40;99.90;;;;;;5052151;28;20091;-83
2022/07/26 07:50:07;;;;;;;5.60;0.77;;;18.50;99.90;;;;;;5061028;28;20048;-83
2022/07/26 07:52:39;;;;;;;6.70;0.98;;;18.60;99.90;;;;;;5052986;28;20055;-85
2022/07/26 07:55:05;;;;;;;6.15;1.25;;;18.60;99.90;;;;;;5057274;23;20053;-84
2022/07/26 07:57:34;;;;;;;7.63;1.20;;;18.60;99.90;;;;;;5051737;28;20045;-80
2022/07/26 08:00:00;;;;;;;5.68;1.50;;;18.30;99.90;;;;;;5062743;23;20160;-81
2022/07/26 08:02:26;;;;;;;5.53;1.58;;;18.10;99.90;;;;;;5051896;28;20056;-81
2022/07/26 08:04:53;;;;;;;12.68;1.20;;;18.10;99.90;;;;;;5051704;28;20041;-79
2022/07/26 08:07:18;;;;;;;7.72;1.00;;;18.10;99.90;;;;;;5064584;28;20113;-77
2022/07/26 08:09:44;;;;;;;5.13;0.90;;;18.00;99.90;;;;;;5071632;28;20041;-80
2022/07/26 08:12:10;;;;;;;8.63;1.00;;;18.00;99.90;;;;;;5071192;28;20475;-79
2022/07/26 08:14:36;;;;;;;7.45;1.17;;;18.20;99.90;;;;;;5071577;28;20438;-78
2022/07/26 08:17:01;;;;;;;9.27;1.20;;;18.10;99.90;;;;;;5071603;28;20040;-82
2022/07/26 08:19:27;;;;;;;6.43;0.90;;;18.50;99.90;;;;;;5071645;28;20453;-78
2022/07/26 08:21:53;;;;;;;6.85;1.02;;;18.30;99.90;;;;;;5068985;28;20044;-83
2022/07/26 08:24:18;;;;;;;9.10;1.20;;;18.30;99.90;;;;;;5070651;28;20040;-80
2022/07/26 08:26:44;;;;;;;10.35;1.17;;;18.60;99.90;;;;;;5063067;28;20041;-83
2022/07/26 08:29:13;;;;;;;10.48;1.25;;;18.50;99.90;;;;;;5050885;28;20041;-80
2022/07/26 08:31:40;;;;;;;12.75;1.55;;;18.50;99.90;;;;;;5055201;28;20041;-75
2022/07/26 08:34:06;;;;;;;6.82;1.35;;;18.30;99.90;;;;;;5050858;23;20072;-84
2022/07/26 08:36:31;;;;;;;11.30;1.38;;;18.30;99.90;;;;;;5051311;28;20456;-82
2022/07/26 08:38:57;;;;;;;9.48;1.25;;;18.10;99.90;;;;;;5045389;28;20061;-82
2022/07/26 08:41:30;;;;;;;11.18;1.63;;;18.20;99.90;;;;;;5055037;28;20032;-85
2022/07/26 08:44:07;;;;;;;12.93;1.50;;;18.10;99.90;;;;;;5225559;23;20534;-83
2022/07/26 08:46:46;;;;;;;9.32;1.20;;;18.10;99.90;;;;;;5046369;28;20060;-77
2022/07/26 08:52:00;;;;;;;7.20;1.25;;;18.10;99.90;;;;;;5055057;23;20053;-83
2022/07/26 08:54:26;;;;;;;7.43;1.20;;;18.30;99.90;;;;;;5517905;23;20447;-84
2022/07/26 08:56:52;;;;;;;6.78;0.90;;;18.40;99.90;;;;;;5048944;28;20114;-80
2022/07/26 08:59:19;;;;;;;7.97;1.30;;;18.40;99.90;;;;;;5048548;28;20061;-85
2022/07/26 09:02:03;;;;;;;11.27;1.70;;;18.40;99.90;;;;;;5048856;28;20394;-78
2022/07/26 09:04:48;;;;;;;10.90;2.72;;;18.20;99.90;;;;;;5056159;23;20654;-74
2022/07/26 09:07:19;;;;;;;14.00;2.03;;;17.90;99.90;;;;;;5050601;28;20057;-80
2022/07/26 09:10:11;;;;;;;14.80;1.67;;;17.70;99.90;;;;;;5048661;28;20059;-84
2022/07/26 09:15:37;;;;;;;12.88;1.90;;;17.70;99.90;;;;;;5057243;23;20076;-83
2022/07/26 09:18:02;;;;;;;9.38;1.52;;;17.80;99.90;;;;;;5049461;28;20087;-86
2022/07/26 09:20:30;;;;;;;14.13;1.88;;;17.90;99.90;;;;;;5050711;28;20048;-84
2022/07/26 09:23:12;;;;;;;12.00;1.75;;;18.00;99.90;;;;;;5053842;28;20501;-82
2022/07/26 09:25:45;;;;;;;8.85;1.70;;;18.20;99.90;;;;;;5050306;28;20765;-86
2022/07/26 09:28:40;;;;;;;15.38;2.60;;;18.20;99.90;;;;;;5050405;28;20044;-83
2022/07/26 09:31:07;;;;;;;17.45;2.30;;;18.30;99.90;;;;;;4988133;28;20128;-84
2022/07/26 09:33:50;;;;;;;20.13;2.72;;;18.50;99.90;;;;;;4988146;28;20105;-86
2022/07/26 09:36:17;;;;;;;17.00;2.33;;;18.50;99.90;;;;;;4988280;28;20058;-83
2022/07/26 09:38:48;;;;;;;14.60;2.15;;;18.40;99.90;;;;;;4988455;28;20045;-83
2022/07/26 09:41:32;;;;;;;10.77;2.13;;;18.50;99.90;;;;;;4972133;28;20445;-82
2022/07/26 09:44:04;;;;;;;13.70;2.08;;;18.50;99.90;;;;;;4972060;28;20650;-87
2022/07/26 09:46:31;;;;;;;18.10;2.60;;;18.50;99.90;;;;;;4987951;28;20066;-77
2022/07/26 09:49:14;;;;;;;14.13;2.05;;;18.80;99.90;;;;;;4988522;28;20059;-77
2022/07/26 09:51:44;;;;;;;16.10;1.95;;;18.70;99.90;;;;;;4988301;28;20061;-84
2022/07/26 09:54:15;;;;;;;13.20;1.58;;;18.80;99.90;;;;;;4988508;28;20429;-83
2022/07/26 09:56:47;;;;;;;9.43;1.80;;;18.60;99.90;;;;;;4988582;28;20164;-83
2022/07/26 09:59:15;;;;;;;9.50;1.20;;;18.60;99.90;;;;;;4988458;28;20053;-76
2022/07/26 10:01:41;;;;;;;14.15;2.38;;;18.70;99.90;;;;;;4955596;28;20054;-83
2022/07/26 10:04:07;;;;;;;12.18;1.60;;;18.90;99.90;;;;;;4988258;28;20124;-77
2022/07/26 10:06:33;;;;;;;11.65;1.90;;;19.00;99.90;;;;;;4994357;28;20938;-85
2022/07/26 10:09:00;;;;;;;14.63;1.50;;;18.90;99.90;;;;;;5049723;28;20492;-84
2022/07/26 10:11:30;;;;;;;10.15;1.90;;;19.00;99.90;;;;;;5049816;28;20041;-79
2022/07/26 10:13:57;;;;;;;19.42;2.17;;;19.10;99.90;;;;;;5032241;28;20049;-82
2022/07/26 10:16:30;;;;;;;8.48;1.50;;;18.90;99.90;;;;;;5053396;28;20047;-79
2022/07/26 10:18:57;;;;;;;13.02;1.52;;;18.90;99.90;;;;;;5049705;28;20483;-82
2022/07/26 10:21:29;;;;;;;11.43;1.58;;;19.10;99.90;;;;;;5049938;28;20106;-80
2022/07/26 10:24:00;;;;;;;14.70;1.58;;;19.20;99.90;;;;;;5049710;28;20041;-79
2022/07/26 10:26:31;;;;;;;8.15;1.30;;;19.60;99.90;;;;;;5060832;28;20094;-80
2022/07/26 10:29:15;;;;;;;10.05;1.20;;;19.80;99.90;;;;;;5070218;28;20400;-75
2022/07/26 10:31:46;;;;;;;10.85;1.58;;;19.90;99.90;;;;;;5070319;28;20036;-79
2022/07/26 10:34:32;;;;;;;13.93;2.38;;;19.80;99.90;;;;;;5069514;28;20441;-83
2022/07/26 10:36:59;;;;;;;12.63;1.90;;;19.80;99.90;;;;;;5062914;28;20387;-81
2022/07/26 10:39:25;;;;;;;8.73;1.27;;;19.70;99.90;;;;;;5035740;28;20060;-80
2022/07/26 10:42:07;;;;;;;13.35;2.03;;;19.70;99.90;;;;;;5049661;28;20396;-78
2022/07/26 10:44:37;;;;;;;11.57;1.45;;;19.90;99.90;;;;;;5050065;28;20049;-82
2022/07/26 10:47:06;;;;;;;13.85;1.77;;;20.30;99.90;;;;;;5052349;28;20135;-78
2022/07/26 10:49:40;;;;;;;9.63;1.30;;;20.50;99.90;;;;;;5053604;28;20127;-88
2022/07/26 10:52:26;;;;;;;12.52;1.20;;;20.60;99.90;;;;;;5053462;28;20041;-78
2022/07/26 10:54:58;;;;;;;12.27;1.55;;;20.50;99.90;;;;;;5072963;28;20123;-82
2022/07/26 10:57:28;;;;;;;15.25;1.50;;;20.70;99.90;;;;;;5073093;28;20113;-80
2022/07/26 10:59:56;;;;;;;8.48;1.10;;;21.00;99.90;;;;;;5073223;28;20036;-81
2022/07/26 11:02:27;;;;;;;13.70;1.60;;;21.10;99.90;;;;;;5072890;28;20067;-82
2022/07/26 11:05:27;;;;;;;6.53;1.00;;;21.00;99.90;;;;;;5070966;28;20036;-83
2022/07/26 11:08:07;;;;;;;8.48;1.75;;;21.00;99.90;;;;;;5036090;28;20054;-82
2022/07/26 11:10:45;;;;;;;6.18;1.10;;;21.10;99.90;;;;;;5005917;28;20956;-79
2022/07/26 11:13:12;;;;;;;7.38;1.20;;;20.90;99.90;;;;;;5041300;28;20041;-79
2022/07/26 11:15:41;;;;;;;8.07;1.10;;;21.00;99.90;;;;;;5029109;28;20100;-80
2022/07/26 11:18:08;;;;;;;4.57;1.05;;;20.90;99.90;;;;;;5032689;28;20408;-84
2022/07/26 11:20:34;;;;;;;7.30;1.30;;;21.30;99.90;;;;;;5043557;28;20056;-84
2022/07/26 11:23:00;;;;;;;9.60;1.20;;;21.50;99.90;;;;;;5033153;28;20044;-79
2022/07/26 11:25:25;;;;;;;7.63;1.05;;;21.60;99.90;;;;;;5049911;28;20091;-80
2022/07/26 11:27:59;;;;;;;7.15;0.90;;;21.50;99.90;;;;;;5049780;28;20068;-79
2022/07/26 11:30:25;;;;;;;9.60;0.95;;;21.40;99.90;;;;;;5044653;28;20904;-77
2022/07/26 11:32:52;;;;;;;4.80;0.95;;;21.40;99.90;;;;;;5032538;28;20132;-80
2022/07/26 11:35:18;;;;;;;4.82;0.77;;;21.30;99.90;;;;;;5029407;28;20073;-77
2022/07/26 11:37:55;;;;;;;5.45;0.98;;;21.40;99.90;;;;;;5029793;28;20092;-76
2022/07/26 11:40:50;;;;;;;6.60;1.13;;;21.90;99.90;;;;;;5029800;28;20049;-78
2022/07/26 11:43:15;;;;;;;6.70;1.10;;;22.00;99.90;;;;;;4970689;28;20065;-78
2022/07/26 11:45:41;;;;;;;8.85;1.15;;;21.90;99.90;;;;;;4954850;28;20059;-78
2022/07/26 11:48:07;;;;;;;12.02;1.42;;;22.00;99.90;;;;;;4971010;28;20051;-78
2022/07/26 11:50:32;;;;;;;6.78;1.10;;;21.90;99.90;;;;;;4956199;28;20039;-76
2022/07/26 11:52:58;;;;;;;12.10;1.30;;;21.70;99.90;;;;;;4954947;28;20616;-76
2022/07/26 11:55:28;;;;;;;5.38;1.15;;;21.50;99.90;;;;;;4954856;28;20061;-77
2022/07/26 11:57:54;;;;;;;4.72;0.88;;;21.70;99.90;;;;;;4970521;28;20057;-78
2022/07/26 12:00:22;;;;;;;12.40;1.05;;;21.80;99.90;;;;;;4970652;28;20090;-79
2022/07/26 12:02:48;;;;;;;8.55;0.88;;;21.70;99.90;;;;;;4975065;28;20062;-79
2022/07/26 12:05:17;;;;;;;7.53;1.17;;;21.60;99.90;;;;;;4970504;28;20046;-78
2022/07/26 12:07:59;;;;;;;10.85;1.42;;;21.50;99.90;;;;;;4981477;28;20520;-76
2022/07/26 12:10:26;;;;;;;9.00;1.35;;;21.20;98.80;;;;;;4989717;28;20096;-79
2022/07/26 12:13:08;;;;;;;7.85;1.30;;;21.20;99.90;;;;;;4989292;28;20058;-76
2022/07/26 12:15:47;;;;;;;6.53;1.10;;;21.30;99.80;;;;;;4973106;28;20069;-79
2022/07/26 12:18:30;;;;;;;6.50;1.20;;;21.50;99.90;;;;;;4989610;28;20133;-78
2022/07/26 12:21:01;;;;;;;5.20;1.10;;;21.60;99.10;;;;;;5069213;28;20131;-79
2022/07/26 12:23:47;;;;;;;7.03;1.20;;;21.80;99.70;;;;;;5070891;28;20041;-77
2022/07/26 12:26:27;;;;;;;7.60;1.10;;;21.70;98.30;;;;;;5069574;28;20110;-78
2022/07/26 12:28:53;;;;;;;7.25;0.90;;;21.90;98.50;;;;;;5068316;28;20047;-82
2022/07/26 12:31:26;;;;;;;5.03;0.77;;;21.90;99.90;;;;;;5051126;28;20052;-82
2022/07/26 12:33:52;;;;;;;6.07;0.93;;;21.80;98.90;;;;;;5049438;28;20045;-80
2022/07/26 12:36:22;;;;;;;4.78;0.80;;;21.90;99.80;;;;;;5050633;28;20055;-79
2022/07/26 12:38:50;;;;;;;8.35;1.13;;;21.80;99.00;;;;;;5050493;28;20586;-80
2022/07/26 12:41:36;;;;;;;4.90;0.98;;;21.50;99.90;;;;;;5050729;28;20438;-78
2022/07/26 12:44:06;;;;;;;7.25;0.93;;;21.30;98.50;;;;;;5050938;28;20052;-79
2022/07/26 12:46:35;;;;;;;7.93;1.08;;;21.40;99.40;;;;;;5050691;28;20106;-80
2022/07/26 12:49:01;;;;;;;8.98;1.10;;;21.30;99.40;;;;;;5050805;28;20492;-80
2022/07/26 12:51:26;;;;;;;6.05;1.02;;;21.50;99.90;;;;;;5050796;28;20053;-81
2022/07/26 12:53:52;;;;;;;7.80;0.90;;;21.80;99.90;;;;;;5050439;28;20045;-83
2022/07/26 12:56:18;;;;;;;6.00;1.02;;;21.80;99.70;;;;;;5050941;28;20076;-81